sensor_id;sensor_type;location;lat;lon;timestamp;pressure;altitude;pressure_sealevel;temperature;humidity
55277;BME280;41136;51.478;-2.610;2023-02-12T00:02:12;102877.77;;;13.16;81.17
55277;BME280;41136;51.478;-2.610;2023-02-12T00:04:38;102869.73;;;13.30;78.89
55277;BME280;41136;51.478;-2.610;2023-02-12T00:07:04;102868.37;;;13.23;79.55
55277;BME280;41136;51.478;-2.610;2023-02-12T00:09:29;102871.30;;;13.84;80.91
55277;BME280;41136;51.478;-2.610;2023-02-12T00:11:55;102872.72;;;13.45;80.09
55277;BME280;41136;51.478;-2.610;2023-02-12T00:14:20;102868.00;;;13.31;79.49
55277;BME280;41136;51.478;-2.610;2023-02-12T00:16:46;102867.64;;;13.58;79.33
55277;BME280;41136;51.478;-2.610;2023-02-12T00:19:11;102871.99;;;13.62;79.01
55277;BME280;41136;51.478;-2.610;2023-02-12T00:21:36;102870.38;;;12.96;81.60
55277;BME280;41136;51.478;-2.610;2023-02-12T00:24:03;102861.56;;;12.50;83.18
55277;BME280;41136;51.478;-2.610;2023-02-12T00:26:27;102858.27;;;13.12;84.12
55277;BME280;41136;51.478;-2.610;2023-02-12T00:28:53;102856.19;;;13.07;81.99
55277;BME280;41136;51.478;-2.610;2023-02-12T00:31:21;102855.32;;;13.19;81.89
55277;BME280;41136;51.478;-2.610;2023-02-12T00:33:44;102855.92;;;13.53;82.17
55277;BME280;41136;51.478;-2.610;2023-02-12T00:36:14;102854.33;;;12.99;81.74
55277;BME280;41136;51.478;-2.610;2023-02-12T00:38:35;102860.17;;;13.52;82.95
55277;BME280;41136;51.478;-2.610;2023-02-12T00:41:00;102863.75;;;13.21;81.56
55277;BME280;41136;51.478;-2.610;2023-02-12T00:43:26;102857.32;;;13.39;81.55
55277;BME280;41136;51.478;-2.610;2023-02-12T00:45:51;102853.75;;;13.49;80.84
55277;BME280;41136;51.478;-2.610;2023-02-12T00:48:17;102856.17;;;13.67;79.88
55277;BME280;41136;51.478;-2.610;2023-02-12T00:50:44;102854.76;;;12.83;82.09
55277;BME280;41136;51.478;-2.610;2023-02-12T00:53:08;102861.43;;;12.87;83.06
55277;BME280;41136;51.478;-2.610;2023-02-12T00:55:34;102860.92;;;12.86;83.19
55277;BME280;41136;51.478;-2.610;2023-02-12T00:57:58;102855.87;;;12.67;83.70
55277;BME280;41136;51.478;-2.610;2023-02-12T01:00:24;102856.67;;;13.53;81.21
55277;BME280;41136;51.478;-2.610;2023-02-12T01:02:49;102861.42;;;13.50;81.52
55277;BME280;41136;51.478;-2.610;2023-02-12T01:05:14;102854.29;;;13.67;82.00
55277;BME280;41136;51.478;-2.610;2023-02-12T01:07:39;102854.87;;;12.87;83.24
55277;BME280;41136;51.478;-2.610;2023-02-12T01:10:06;102856.80;;;13.44;82.06
55277;BME280;41136;51.478;-2.610;2023-02-12T01:12:30;102855.32;;;13.35;82.81
55277;BME280;41136;51.478;-2.610;2023-02-12T01:14:56;102856.74;;;13.26;81.51
55277;BME280;41136;51.478;-2.610;2023-02-12T01:17:21;102854.23;;;12.99;82.41
55277;BME280;41136;51.478;-2.610;2023-02-12T01:19:47;102855.02;;;12.81;83.37
55277;BME280;41136;51.478;-2.610;2023-02-12T01:22:12;102852.22;;;13.12;83.19
55277;BME280;41136;51.478;-2.610;2023-02-12T01:24:39;102847.59;;;13.25;82.65
55277;BME280;41136;51.478;-2.610;2023-02-12T01:27:03;102845.01;;;12.37;85.10
55277;BME280;41136;51.478;-2.610;2023-02-12T01:29:29;102841.83;;;13.07;83.39
55277;BME280;41136;51.478;-2.610;2023-02-12T01:31:54;102844.09;;;13.95;81.51
55277;BME280;41136;51.478;-2.610;2023-02-12T01:34:19;102842.10;;;13.10;82.33
55277;BME280;41136;51.478;-2.610;2023-02-12T01:36:44;102841.27;;;13.03;82.65
55277;BME280;41136;51.478;-2.610;2023-02-12T01:39:11;102842.40;;;13.33;82.04
55277;BME280;41136;51.478;-2.610;2023-02-12T01:41:39;102843.81;;;13.51;81.79
55277;BME280;41136;51.478;-2.610;2023-02-12T01:44:06;102839.75;;;12.79;84.15
55277;BME280;41136;51.478;-2.610;2023-02-12T01:46:25;102836.23;;;12.40;84.73
55277;BME280;41136;51.478;-2.610;2023-02-12T01:48:51;102835.47;;;12.79;84.21
55277;BME280;41136;51.478;-2.610;2023-02-12T01:51:19;102836.29;;;13.54;81.68
55277;BME280;41136;51.478;-2.610;2023-02-12T01:53:46;102838.66;;;13.01;81.57
55277;BME280;41136;51.478;-2.610;2023-02-12T01:56:08;102839.71;;;12.10;85.04
55277;BME280;41136;51.478;-2.610;2023-02-12T01:58:36;102836.07;;;13.01;85.07
55277;BME280;41136;51.478;-2.610;2023-02-12T02:00:59;102835.06;;;13.24;81.21
55277;BME280;41136;51.478;-2.610;2023-02-12T02:03:23;102841.99;;;13.10;82.66
55277;BME280;41136;51.478;-2.610;2023-02-12T02:05:55;102841.86;;;13.51;82.07
55277;BME280;41136;51.478;-2.610;2023-02-12T02:11:00;102839.42;;;12.97;78.20
55277;BME280;41136;51.478;-2.610;2023-02-12T02:13:26;102845.02;;;13.26;77.24
55277;BME280;41136;51.478;-2.610;2023-02-12T02:15:54;102851.08;;;12.98;76.73
55277;BME280;41136;51.478;-2.610;2023-02-12T02:18:21;102849.52;;;12.91;76.75
55277;BME280;41136;51.478;-2.610;2023-02-12T02:20:54;102849.04;;;13.66;77.80
55277;BME280;41136;51.478;-2.610;2023-02-12T02:25:46;102841.17;;;12.95;81.02
55277;BME280;41136;51.478;-2.610;2023-02-12T02:28:06;102840.51;;;12.57;82.91
55277;BME280;41136;51.478;-2.610;2023-02-12T02:30:31;102839.82;;;12.53;84.45
55277;BME280;41136;51.478;-2.610;2023-02-12T02:32:55;102842.01;;;12.79;82.39
55277;BME280;41136;51.478;-2.610;2023-02-12T02:35:16;102835.38;;;11.99;84.05
55277;BME280;41136;51.478;-2.610;2023-02-12T02:37:41;102832.07;;;12.22;84.88
55277;BME280;41136;51.478;-2.610;2023-02-12T02:40:08;102834.56;;;12.65;84.29
55277;BME280;41136;51.478;-2.610;2023-02-12T02:42:31;102836.92;;;12.92;83.56
55277;BME280;41136;51.478;-2.610;2023-02-12T02:44:56;102838.74;;;12.61;83.31
55277;BME280;41136;51.478;-2.610;2023-02-12T02:47:21;102837.37;;;12.50;84.03
55277;BME280;41136;51.478;-2.610;2023-02-12T02:49:47;102833.30;;;13.19;82.49
55277;BME280;41136;51.478;-2.610;2023-02-12T02:52:15;102835.85;;;12.89;81.98
55277;BME280;41136;51.478;-2.610;2023-02-12T02:54:38;102833.49;;;12.83;81.97
55277;BME280;41136;51.478;-2.610;2023-02-12T02:57:07;102826.63;;;12.95;81.91
55277;BME280;41136;51.478;-2.610;2023-02-12T02:59:28;102830.59;;;13.19;82.57
55277;BME280;41136;51.478;-2.610;2023-02-12T03:01:53;102831.04;;;13.01;81.44
55277;BME280;41136;51.478;-2.610;2023-02-12T03:04:19;102825.91;;;12.80;81.52
55277;BME280;41136;51.478;-2.610;2023-02-12T03:06:45;102827.66;;;12.38;83.68
55277;BME280;41136;51.478;-2.610;2023-02-12T03:09:13;102830.12;;;12.89;83.83
55277;BME280;41136;51.478;-2.610;2023-02-12T03:11:33;102828.46;;;13.19;82.20
55277;BME280;41136;51.478;-2.610;2023-02-12T03:14:03;102820.32;;;12.77;83.13
55277;BME280;41136;51.478;-2.610;2023-02-12T03:16:25;102821.76;;;13.08;81.98
55277;BME280;41136;51.478;-2.610;2023-02-12T03:18:52;102831.24;;;13.00;81.86
55277;BME280;41136;51.478;-2.610;2023-02-12T03:21:19;102824.99;;;12.67;82.79
55277;BME280;41136;51.478;-2.610;2023-02-12T03:23:42;102816.86;;;12.89;82.62
55277;BME280;41136;51.478;-2.610;2023-02-12T03:26:07;102824.50;;;12.63;82.01
55277;BME280;41136;51.478;-2.610;2023-02-12T03:28:32;102820.83;;;12.98;81.94
55277;BME280;41136;51.478;-2.610;2023-02-12T03:31:02;102812.11;;;12.25;85.10
55277;BME280;41136;51.478;-2.610;2023-02-12T03:33:28;102819.15;;;12.37;84.08
55277;BME280;41136;51.478;-2.610;2023-02-12T03:35:53;102824.49;;;12.72;82.59
55277;BME280;41136;51.478;-2.610;2023-02-12T03:38:17;102821.88;;;12.97;81.99
55277;BME280;41136;51.478;-2.610;2023-02-12T03:40:41;102822.74;;;12.33;82.84
55277;BME280;41136;51.478;-2.610;2023-02-12T03:43:05;102821.86;;;12.30;84.12
55277;BME280;41136;51.478;-2.610;2023-02-12T03:45:35;102816.38;;;12.62;82.20
55277;BME280;41136;51.478;-2.610;2023-02-12T03:48:00;102817.03;;;12.18;83.66
55277;BME280;41136;51.478;-2.610;2023-02-12T03:50:20;102814.04;;;12.18;85.17
55277;BME280;41136;51.478;-2.610;2023-02-12T03:52:43;102813.37;;;12.55;83.89
55277;BME280;41136;51.478;-2.610;2023-02-12T03:55:09;102813.01;;;12.79;82.13
55277;BME280;41136;51.478;-2.610;2023-02-12T03:57:39;102814.21;;;12.97;81.19
55277;BME280;41136;51.478;-2.610;2023-02-12T04:00:03;102807.60;;;13.18;80.28
55277;BME280;41136;51.478;-2.610;2023-02-12T04:02:24;102812.64;;;13.11;80.51
55277;BME280;41136;51.478;-2.610;2023-02-12T04:04:51;102813.90;;;13.02;80.87
55277;BME280;41136;51.478;-2.610;2023-02-12T04:07:15;102810.84;;;12.80;81.62
55277;BME280;41136;51.478;-2.610;2023-02-12T04:09:41;102807.61;;;12.77;81.61
55277;BME280;41136;51.478;-2.610;2023-02-12T04:12:20;102810.87;;;12.64;82.17
55277;BME280;41136;51.478;-2.610;2023-02-12T04:14:39;102806.13;;;12.58;82.73
55277;BME280;41136;51.478;-2.610;2023-02-12T04:17:02;102809.75;;;12.50;82.92
55277;BME280;41136;51.478;-2.610;2023-02-12T04:19:29;102807.82;;;12.55;82.66
55277;BME280;41136;51.478;-2.610;2023-02-12T04:21:58;102809.39;;;12.38;83.64
55277;BME280;41136;51.478;-2.610;2023-02-12T04:24:17;102807.43;;;12.39;83.96
55277;BME280;41136;51.478;-2.610;2023-02-12T04:26:47;102806.23;;;12.41;83.35
55277;BME280;41136;51.478;-2.610;2023-02-12T04:29:10;102805.18;;;12.34;83.33
55277;BME280;41136;51.478;-2.610;2023-02-12T04:31:34;102806.17;;;11.86;85.49
55277;BME280;41136;51.478;-2.610;2023-02-12T04:34:02;102808.04;;;12.44;85.49
55277;BME280;41136;51.478;-2.610;2023-02-12T04:36:22;102809.94;;;12.06;85.65
55277;BME280;41136;51.478;-2.610;2023-02-12T04:38:49;102811.15;;;12.04;85.34
55277;BME280;41136;51.478;-2.610;2023-02-12T04:41:10;102809.28;;;12.50;83.98
55277;BME280;41136;51.478;-2.610;2023-02-12T04:43:36;102809.72;;;12.68;82.40
55277;BME280;41136;51.478;-2.610;2023-02-12T04:46:03;102813.25;;;12.86;81.58
55277;BME280;41136;51.478;-2.610;2023-02-12T04:48:27;102815.10;;;12.28;82.94
55277;BME280;41136;51.478;-2.610;2023-02-12T04:50:53;102814.28;;;12.46;84.47
55277;BME280;41136;51.478;-2.610;2023-02-12T04:53:18;102817.04;;;12.29;82.60
55277;BME280;41136;51.478;-2.610;2023-02-12T04:55:43;102819.11;;;12.07;84.01
55277;BME280;41136;51.478;-2.610;2023-02-12T04:58:08;102815.46;;;12.01;84.67
55277;BME280;41136;51.478;-2.610;2023-02-12T05:00:34;102815.08;;;11.77;84.70
55277;BME280;41136;51.478;-2.610;2023-02-12T05:02:59;102819.06;;;12.60;84.25
55277;BME280;41136;51.478;-2.610;2023-02-12T05:05:25;102814.18;;;12.57;82.07
55277;BME280;41136;51.478;-2.610;2023-02-12T05:07:49;102813.64;;;13.00;80.95
55277;BME280;41136;51.478;-2.610;2023-02-12T05:10:15;102810.57;;;12.88;80.30
55277;BME280;41136;51.478;-2.610;2023-02-12T05:12:40;102813.98;;;12.36;80.85
55277;BME280;41136;51.478;-2.610;2023-02-12T05:15:06;102809.49;;;12.40;82.39
55277;BME280;41136;51.478;-2.610;2023-02-12T05:17:31;102809.01;;;12.74;80.73
55277;BME280;41136;51.478;-2.610;2023-02-12T05:19:56;102805.78;;;12.61;81.31
55277;BME280;41136;51.478;-2.610;2023-02-12T05:22:21;102806.40;;;12.49;82.32
55277;BME280;41136;51.478;-2.610;2023-02-12T05:24:47;102801.72;;;11.92;85.04
55277;BME280;41136;51.478;-2.610;2023-02-12T05:27:17;102806.59;;;11.97;84.34
55277;BME280;41136;51.478;-2.610;2023-02-12T05:29:38;102811.92;;;12.42;82.49
55277;BME280;41136;51.478;-2.610;2023-02-12T05:32:04;102812.80;;;11.88;84.14
55277;BME280;41136;51.478;-2.610;2023-02-12T05:34:29;102810.21;;;11.88;85.56
55277;BME280;41136;51.478;-2.610;2023-02-12T05:36:54;102812.22;;;12.30;84.72
55277;BME280;41136;51.478;-2.610;2023-02-12T05:39:19;102819.76;;;12.61;82.52
55277;BME280;41136;51.478;-2.610;2023-02-12T05:43:06;102814.67;;;12.27;78.92
55277;BME280;41136;51.478;-2.610;2023-02-12T05:45:32;102815.07;;;12.06;78.15
55277;BME280;41136;51.478;-2.610;2023-02-12T05:47:57;102808.18;;;12.16;78.46
55277;BME280;41136;51.478;-2.610;2023-02-12T05:50:22;102796.04;;;12.08;79.56
55277;BME280;41136;51.478;-2.610;2023-02-12T05:52:48;102801.81;;;13.38;77.24
55277;BME280;41136;51.478;-2.610;2023-02-12T05:55:13;102802.85;;;13.23;77.77
55277;BME280;41136;51.478;-2.610;2023-02-12T05:57:39;102804.68;;;12.84;78.75
55277;BME280;41136;51.478;-2.610;2023-02-12T06:00:05;102803.86;;;12.96;78.00
55277;BME280;41136;51.478;-2.610;2023-02-12T06:02:29;102805.31;;;13.04;79.28
55277;BME280;41136;51.478;-2.610;2023-02-12T06:04:54;102801.82;;;13.23;77.65
55277;BME280;41136;51.478;-2.610;2023-02-12T06:07:20;102800.87;;;13.03;78.78
55277;BME280;41136;51.478;-2.610;2023-02-12T06:09:46;102800.29;;;12.60;80.86
55277;BME280;41136;51.478;-2.610;2023-02-12T06:12:11;102795.90;;;12.50;81.26
55277;BME280;41136;51.478;-2.610;2023-02-12T06:14:36;102796.34;;;12.56;79.75
55277;BME280;41136;51.478;-2.610;2023-02-12T06:17:01;102795.40;;;12.64;82.32
55277;BME280;41136;51.478;-2.610;2023-02-12T06:19:26;102793.95;;;12.50;82.08
55277;BME280;41136;51.478;-2.610;2023-02-12T06:21:52;102792.16;;;12.84;80.48
55277;BME280;41136;51.478;-2.610;2023-02-12T06:24:17;102792.09;;;12.90;80.94
55277;BME280;41136;51.478;-2.610;2023-02-12T06:26:42;102789.88;;;12.69;79.79
55277;BME280;41136;51.478;-2.610;2023-02-12T06:29:08;102785.66;;;12.93;79.64
55277;BME280;41136;51.478;-2.610;2023-02-12T06:31:35;102785.59;;;12.57;80.29
55277;BME280;41136;51.478;-2.610;2023-02-12T06:34:01;102782.19;;;12.70;81.45
55277;BME280;41136;51.478;-2.610;2023-02-12T06:36:25;102777.71;;;12.18;82.64
55277;BME280;41136;51.478;-2.610;2023-02-12T06:38:51;102773.52;;;12.34;82.11
55277;BME280;41136;51.478;-2.610;2023-02-12T06:41:15;102773.88;;;12.77;82.22
55277;BME280;41136;51.478;-2.610;2023-02-12T06:43:40;102773.99;;;12.78;79.92
55277;BME280;41136;51.478;-2.610;2023-02-12T06:46:06;102773.51;;;12.36;81.14
55277;BME280;41136;51.478;-2.610;2023-02-12T06:48:31;102772.25;;;13.11;79.96
55277;BME280;41136;51.478;-2.610;2023-02-12T06:50:56;102766.60;;;12.88;80.85
55277;BME280;41136;51.478;-2.610;2023-02-12T06:53:21;102769.64;;;12.42;81.29
55277;BME280;41136;51.478;-2.610;2023-02-12T06:55:47;102765.78;;;12.96;80.26
55277;BME280;41136;51.478;-2.610;2023-02-12T06:58:12;102767.17;;;13.12;79.15
55277;BME280;41136;51.478;-2.610;2023-02-12T07:00:37;102770.12;;;12.69;80.08
55277;BME280;41136;51.478;-2.610;2023-02-12T07:03:03;102771.52;;;12.96;79.53
55277;BME280;41136;51.478;-2.610;2023-02-12T07:05:28;102779.04;;;12.51;81.01
55277;BME280;41136;51.478;-2.610;2023-02-12T07:07:53;102780.15;;;12.78;81.12
55277;BME280;41136;51.478;-2.610;2023-02-12T07:10:19;102784.18;;;12.51;81.20
55277;BME280;41136;51.478;-2.610;2023-02-12T07:12:45;102786.52;;;12.52;80.95
55277;BME280;41136;51.478;-2.610;2023-02-12T07:15:11;102782.26;;;12.55;81.47
55277;BME280;41136;51.478;-2.610;2023-02-12T07:17:35;102781.60;;;12.65;81.37
55277;BME280;41136;51.478;-2.610;2023-02-12T07:20:01;102785.85;;;12.63;81.28
55277;BME280;41136;51.478;-2.610;2023-02-12T07:22:26;102787.27;;;12.59;81.96
55277;BME280;41136;51.478;-2.610;2023-02-12T07:24:51;102792.90;;;12.72;81.57
55277;BME280;41136;51.478;-2.610;2023-02-12T07:27:17;102799.66;;;12.63;82.18
55277;BME280;41136;51.478;-2.610;2023-02-12T07:29:42;102800.88;;;12.15;83.20
55277;BME280;41136;51.478;-2.610;2023-02-12T07:32:08;102802.25;;;12.42;83.31
55277;BME280;41136;51.478;-2.610;2023-02-12T07:34:33;102803.33;;;12.38;82.85
55277;BME280;41136;51.478;-2.610;2023-02-12T07:36:59;102809.07;;;12.13;83.79
55277;BME280;41136;51.478;-2.610;2023-02-12T07:39:24;102814.07;;;11.98;84.26
55277;BME280;41136;51.478;-2.610;2023-02-12T07:41:49;102814.90;;;11.82;83.97
55277;BME280;41136;51.478;-2.610;2023-02-12T07:44:15;102817.03;;;12.26;84.07
55277;BME280;41136;51.478;-2.610;2023-02-12T07:46:43;102813.13;;;12.59;83.48
55277;BME280;41136;51.478;-2.610;2023-02-12T07:49:07;102812.97;;;12.25;83.13
55277;BME280;41136;51.478;-2.610;2023-02-12T07:51:32;102816.34;;;12.47;83.52
55277;BME280;41136;51.478;-2.610;2023-02-12T07:53:57;102815.34;;;11.98;84.50
55277;BME280;41136;51.478;-2.610;2023-02-12T07:56:24;102815.61;;;12.15;83.76
55277;BME280;41136;51.478;-2.610;2023-02-12T07:58:51;102817.51;;;12.83;82.34
55277;BME280;41136;51.478;-2.610;2023-02-12T08:01:16;102822.97;;;12.30;83.22
55277;BME280;41136;51.478;-2.610;2023-02-12T08:03:39;102820.50;;;12.42;83.36
55277;BME280;41136;51.478;-2.610;2023-02-12T08:06:07;102816.29;;;12.24;84.79
55277;BME280;41136;51.478;-2.610;2023-02-12T08:08:29;102813.97;;;12.69;82.77
55277;BME280;41136;51.478;-2.610;2023-02-12T08:10:55;102814.64;;;12.92;83.09
55277;BME280;41136;51.478;-2.610;2023-02-12T08:13:20;102814.42;;;12.40;83.98
55277;BME280;41136;51.478;-2.610;2023-02-12T08:15:45;102813.81;;;12.13;84.53
55277;BME280;41136;51.478;-2.610;2023-02-12T08:18:11;102817.00;;;11.90;85.54
55277;BME280;41136;51.478;-2.610;2023-02-12T08:20:36;102816.42;;;11.71;87.74
55277;BME280;41136;51.478;-2.610;2023-02-12T08:23:01;102819.02;;;12.03;87.69
55277;BME280;41136;51.478;-2.610;2023-02-12T08:25:27;102821.44;;;11.66;88.56
55277;BME280;41136;51.478;-2.610;2023-02-12T08:27:53;102825.10;;;11.75;89.10
55277;BME280;41136;51.478;-2.610;2023-02-12T08:30:18;102829.18;;;11.38;89.06
55277;BME280;41136;51.478;-2.610;2023-02-12T08:32:44;102829.88;;;11.78;90.26
55277;BME280;41136;51.478;-2.610;2023-02-12T08:35:10;102833.72;;;12.03;88.66
55277;BME280;41136;51.478;-2.610;2023-02-12T08:37:35;102832.61;;;11.75;88.51
55277;BME280;41136;51.478;-2.610;2023-02-12T08:40:00;102835.01;;;11.66;87.99
55277;BME280;41136;51.478;-2.610;2023-02-12T08:42:25;102840.72;;;11.84;88.23
55277;BME280;41136;51.478;-2.610;2023-02-12T08:44:51;102840.19;;;11.69;89.36
55277;BME280;41136;51.478;-2.610;2023-02-12T08:47:16;102839.76;;;12.44;89.36
55277;BME280;41136;51.478;-2.610;2023-02-12T08:49:42;102836.19;;;12.37;87.80
55277;BME280;41136;51.478;-2.610;2023-02-12T08:52:07;102838.02;;;12.00;87.67
55277;BME280;41136;51.478;-2.610;2023-02-12T08:54:33;102843.73;;;12.06;88.22
55277;BME280;41136;51.478;-2.610;2023-02-12T08:57:00;102845.68;;;11.92;87.16
55277;BME280;41136;51.478;-2.610;2023-02-12T08:59:23;102844.51;;;11.90;87.74
55277;BME280;41136;51.478;-2.610;2023-02-12T09:01:49;102847.61;;;12.06;87.54
55277;BME280;41136;51.478;-2.610;2023-02-12T09:04:17;102851.18;;;11.89;88.28
55277;BME280;41136;51.478;-2.610;2023-02-12T09:06:39;102852.16;;;11.73;89.27
55277;BME280;41136;51.478;-2.610;2023-02-12T09:09:05;102851.65;;;11.88;89.32
55277;BME280;41136;51.478;-2.610;2023-02-12T09:11:30;102850.79;;;12.17;88.84
55277;BME280;41136;51.478;-2.610;2023-02-12T09:13:57;102853.29;;;12.05;90.39
55277;BME280;41136;51.478;-2.610;2023-02-12T09:16:21;102852.35;;;12.05;88.98
55277;BME280;41136;51.478;-2.610;2023-02-12T09:18:47;102855.26;;;11.95;88.00
55277;BME280;41136;51.478;-2.610;2023-02-12T09:21:14;102850.95;;;12.23;87.30
55277;BME280;41136;51.478;-2.610;2023-02-12T09:23:38;102849.95;;;12.14;87.50
55277;BME280;41136;51.478;-2.610;2023-02-12T09:26:03;102848.30;;;11.72;87.37
55277;BME280;41136;51.478;-2.610;2023-02-12T09:28:28;102847.24;;;11.81;87.36
55277;BME280;41136;51.478;-2.610;2023-02-12T09:30:53;102845.16;;;12.12;87.13
55277;BME280;41136;51.478;-2.610;2023-02-12T09:33:18;102845.49;;;12.34;87.34
55277;BME280;41136;51.478;-2.610;2023-02-12T09:35:44;102843.23;;;11.42;90.09
55277;BME280;41136;51.478;-2.610;2023-02-12T09:38:09;102835.52;;;11.93;88.01
55277;BME280;41136;51.478;-2.610;2023-02-12T09:40:39;102832.39;;;12.59;85.72
55277;BME280;41136;51.478;-2.610;2023-02-12T09:43:11;102829.82;;;11.97;86.83
55277;BME280;41136;51.478;-2.610;2023-02-12T09:45:30;102829.45;;;12.23;86.22
55277;BME280;41136;51.478;-2.610;2023-02-12T09:47:55;102830.95;;;12.45;84.53
55277;BME280;41136;51.478;-2.610;2023-02-12T09:50:29;102832.93;;;11.57;85.38
55277;BME280;41136;51.478;-2.610;2023-02-12T09:52:43;102835.34;;;11.85;85.85
55277;BME280;41136;51.478;-2.610;2023-02-12T09:55:14;102834.93;;;11.89;86.04
55277;BME280;41136;51.478;-2.610;2023-02-12T09:57:35;102833.02;;;11.72;85.99
55277;BME280;41136;51.478;-2.610;2023-02-12T10:00:03;102838.77;;;12.27;81.41
55277;BME280;41136;51.478;-2.610;2023-02-12T10:02:24;102837.67;;;11.98;79.09
55277;BME280;41136;51.478;-2.610;2023-02-12T10:04:52;102836.43;;;11.65;81.11
55277;BME280;41136;51.478;-2.610;2023-02-12T10:07:24;102836.75;;;11.65;80.48
55277;BME280;41136;51.478;-2.610;2023-02-12T10:12:12;102836.96;;;11.48;81.83
55277;BME280;41136;51.478;-2.610;2023-02-12T10:14:43;102839.71;;;11.51;80.66
55277;BME280;41136;51.478;-2.610;2023-02-12T10:17:01;102837.13;;;11.47;76.98
55277;BME280;41136;51.478;-2.610;2023-02-12T10:19:32;102840.58;;;11.64;76.76
55277;BME280;41136;51.478;-2.610;2023-02-12T10:21:55;102843.10;;;11.49;77.54
55277;BME280;41136;51.478;-2.610;2023-02-12T10:24:20;102840.59;;;10.78;79.89
55277;BME280;41136;51.478;-2.610;2023-02-12T10:26:40;102840.95;;;11.49;79.37
55277;BME280;41136;51.478;-2.610;2023-02-12T10:29:10;102849.02;;;10.77;79.65
55277;BME280;41136;51.478;-2.610;2023-02-12T10:31:31;102840.54;;;10.87;79.46
55277;BME280;41136;51.478;-2.610;2023-02-12T10:33:53;102838.43;;;10.60;78.88
55277;BME280;41136;51.478;-2.610;2023-02-12T10:38:48;102845.90;;;11.09;73.43
55277;BME280;41136;51.478;-2.610;2023-02-12T10:43:34;102846.51;;;10.89;73.84
55277;BME280;41136;51.478;-2.610;2023-02-12T10:48:30;102852.48;;;10.34;75.93
55277;BME280;41136;51.478;-2.610;2023-02-12T10:51:01;102848.13;;;11.00;75.44
55277;BME280;41136;51.478;-2.610;2023-02-12T10:53:20;102848.72;;;11.03;74.71
55277;BME280;41136;51.478;-2.610;2023-02-12T10:55:41;102847.39;;;10.87;76.01
55277;BME280;41136;51.478;-2.610;2023-02-12T10:58:16;102848.81;;;10.77;75.51
55277;BME280;41136;51.478;-2.610;2023-02-12T11:00:34;102846.92;;;11.12;75.74
55277;BME280;41136;51.478;-2.610;2023-02-12T11:03:02;102845.09;;;11.38;73.29
55277;BME280;41136;51.478;-2.610;2023-02-12T11:05:25;102845.25;;;11.58;73.28
55277;BME280;41136;51.478;-2.610;2023-02-12T11:07:49;102846.38;;;11.93;72.03
55277;BME280;41136;51.478;-2.610;2023-02-12T11:10:20;102848.01;;;11.57;70.52
55277;BME280;41136;51.478;-2.610;2023-02-12T11:15:12;102849.40;;;11.23;71.84
55277;BME280;41136;51.478;-2.610;2023-02-12T11:17:35;102844.20;;;11.69;72.39
55277;BME280;41136;51.478;-2.610;2023-02-12T11:20:01;102835.65;;;11.84;72.56
55277;BME280;41136;51.478;-2.610;2023-02-12T11:22:20;102831.12;;;12.32;71.37
55277;BME280;41136;51.478;-2.610;2023-02-12T11:24:45;102827.88;;;12.15;70.77
55277;BME280;41136;51.478;-2.610;2023-02-12T11:27:20;102827.82;;;12.13;68.11
55277;BME280;41136;51.478;-2.610;2023-02-12T11:29:36;102827.99;;;11.34;71.17
55277;BME280;41136;51.478;-2.610;2023-02-12T11:32:03;102826.93;;;11.11;72.37
55277;BME280;41136;51.478;-2.610;2023-02-12T11:34:27;102826.97;;;11.32;72.20
55277;BME280;41136;51.478;-2.610;2023-02-12T11:36:53;102824.63;;;11.32;74.03
55277;BME280;41136;51.478;-2.610;2023-02-12T11:39:20;102822.14;;;11.12;73.47
55277;BME280;41136;51.478;-2.610;2023-02-12T11:41:51;102815.31;;;11.37;70.33
55277;BME280;41136;51.478;-2.610;2023-02-12T11:44:09;102815.45;;;11.78;70.56
55277;BME280;41136;51.478;-2.610;2023-02-12T11:46:34;102814.36;;;12.05;70.42
55277;BME280;41136;51.478;-2.610;2023-02-12T11:48:59;102816.40;;;11.37;71.93
55277;BME280;41136;51.478;-2.610;2023-02-12T11:51:26;102822.66;;;11.23;72.66
55277;BME280;41136;51.478;-2.610;2023-02-12T11:53:51;102823.07;;;11.10;73.34
55277;BME280;41136;51.478;-2.610;2023-02-12T11:56:15;102821.62;;;11.71;72.23
55277;BME280;41136;51.478;-2.610;2023-02-12T11:58:40;102814.98;;;11.96;70.86
55277;BME280;41136;51.478;-2.610;2023-02-12T12:01:12;102807.55;;;11.45;72.19
55277;BME280;41136;51.478;-2.610;2023-02-12T12:03:36;102808.33;;;11.78;71.28
55277;BME280;41136;51.478;-2.610;2023-02-12T12:06:01;102800.91;;;11.67;72.20
55277;BME280;41136;51.478;-2.610;2023-02-12T12:08:25;102798.70;;;11.38;71.74
55277;BME280;41136;51.478;-2.610;2023-02-12T12:10:52;102792.92;;;11.51;71.57
55277;BME280;41136;51.478;-2.610;2023-02-12T12:13:16;102793.08;;;11.95;70.90
55277;BME280;41136;51.478;-2.610;2023-02-12T12:15:43;102795.58;;;11.46;69.02
55277;BME280;41136;51.478;-2.610;2023-02-12T12:18:11;102792.42;;;11.38;69.00
55277;BME280;41136;51.478;-2.610;2023-02-12T12:20:32;102787.47;;;11.41;68.57
55277;BME280;41136;51.478;-2.610;2023-02-12T12:22:58;102791.38;;;11.23;69.87
55277;BME280;41136;51.478;-2.610;2023-02-12T12:25:24;102790.46;;;11.36;70.79
55277;BME280;41136;51.478;-2.610;2023-02-12T12:27:55;102786.26;;;11.85;68.76
55277;BME280;41136;51.478;-2.610;2023-02-12T12:30:17;102783.39;;;11.33;67.44
55277;BME280;41136;51.478;-2.610;2023-02-12T12:32:38;102779.69;;;11.80;68.14
55277;BME280;41136;51.478;-2.610;2023-02-12T12:35:02;102774.62;;;12.15;67.57
55277;BME280;41136;51.478;-2.610;2023-02-12T12:37:32;102769.79;;;11.59;69.03
55277;BME280;41136;51.478;-2.610;2023-02-12T12:40:04;102765.73;;;11.30;69.12
55277;BME280;41136;51.478;-2.610;2023-02-12T12:44:56;102760.43;;;12.02;69.99
55277;BME280;41136;51.478;-2.610;2023-02-12T12:47:18;102756.59;;;11.86;71.00
55277;BME280;41136;51.478;-2.610;2023-02-12T12:52:11;102754.38;;;12.32;69.14
55277;BME280;41136;51.478;-2.610;2023-02-12T12:54:38;102752.59;;;12.79;67.37